Crane Lake, MN

8:20 PM CDT on September 30, 2014 (GMT -0500)
Crane Lake | Change Station
CLOSE
Current Station
Airport
Location: Crane Lake,
Elevation: 341 m
Nearby Weather Stations

Elev 341 m 48.27 °N, 92.48 °W | Updated 31 minutes ago

Clear
Clear
7 °C
Feels Like 7 °C
N
0
Wind Variable Wind from North

Today
High -- | Low -- °C
--% Chance of Precip.
Yesterday
High -- | Low -- °C
Precip. -- mm
7:07 AM 6:51 PM
Waxing Crescent, 42% visible
Pressure 1013 hPa
Visibility 16.1 kilometers
Clouds Clear
Dew Point 5 °C
Humidity 87%
Rainfall 0.0 mm
Snow Depth Not available.
UV 0 out of 12
Pollen 1.30 out of 12
Air Quality Not available.
Flu Activity Not available.
METAR KCDD 010049Z AUTO 00000KT 10SM CLR 07/05 A2993 RMK AO2

More Conditions Fewer Conditions

Pressure 1013 hPa
Visibility 16.1 kilometers
Clouds Clear
Dew Point 5 °C
Humidity 87%
Rainfall 0.0 mm
Snow Depth Not available.
UV 0 out of 12
Pollen 1.30 out of 12
Air Quality Not available.
Flu Activity Not available.
METAR KCDD 010049Z AUTO 00000KT 10SM CLR 07/05 A2993 RMK AO2

More Conditions Fewer Conditions

10-Day Weather Forecast

Almanac

Astronomy

Sep. 30, 2014 Rise Set
Actual Time 7:07 AM CDT 6:51 PM CDT
Civil Twilight 6:36 AM CDT 7:22 PM CDT
Nautical Twilight 6:00 AM CDT 7:58 PM CDT
Astronomical Twilight 5:23 AM CDT 8:35 PM CDT
Moon 1:37 PM CDT (9/30) 11:00 PM CDT (9/30)
Length of Visible Light 12h 45m
Length of Day
11h 43m
Tomorrow will be 3m 30s shorter.
Waxing Crescent, 42% of the Moon is Illuminated
Today
Waxing Crescent
Oct 1
First Quarter
Oct 8
Full
Oct 15
Last Quarter
Oct 23
New

Today's Extremes

State Highs State Lows

Community

WunderPhotos

Upload Photos

1,757,815 photos uploaded!

Nearby

Snow Depth

Station Depth Elevation
No new snow has been reported.

Earthquake Activity

City Distance Mag. Time & Date
No recent earthquake activity has been reported nearby.
Minimum magnitude displayed is 2.5.

Coastal Water Temperatures

Place Temperature
No Stations Reporting

Nearby Weather Stations